Old Union, Mississippi
Current Conditions -  °F | °C
As of 4:53 AM on Friday 28 Nov 2014 (Local Time) from KTUP Reporting Station
Clear Clear  
Wind Chill: 26°   Ceiling: Unl
Heat Index: 26°   Visibility: 9mi
Dew Point: 22°   Wind: 3mph
Humidity: 84%   Direction: 30°NNE
Pressure: 30.44"   Gusts: NA
Location:  34.1202°N, 88.7439°W
Report Text: KTUP 281053Z AUTO 03003KT 9SM CLR M03/M06 A3044 RMK AO2 SLP311 T10331056 $
Loading
Personal Weather Stations






























Interactive Weather Map New forecast layout! Learn more

10-Day Weather Forecast

Advertisements
Track Severe Weather on mobile